createdAt,value
2023-01-20T00:00:26.859Z,2.70
2023-01-20T00:02:57.032Z,5.10
2023-01-20T00:05:23.742Z,5.20
2023-01-20T00:07:50.400Z,4.80
2023-01-20T00:10:17.533Z,3.60
2023-01-20T00:12:44.201Z,2.90
2023-01-20T00:15:11.609Z,2.13
2023-01-20T00:17:38.309Z,2.13
2023-01-20T00:20:05.718Z,1.93
2023-01-20T00:22:32.683Z,2.83
2023-01-20T00:24:59.279Z,3.63
2023-01-20T00:27:25.919Z,2.45
2023-01-20T00:29:52.545Z,2.17
2023-01-20T00:32:19.216Z,1.93
2023-01-20T00:34:46.179Z,3.50
2023-01-20T00:37:12.870Z,5.38
2023-01-20T00:39:39.501Z,7.05
2023-01-20T00:42:06.174Z,6.40
2023-01-20T00:44:32.909Z,5.93
2023-01-20T00:46:59.601Z,4.80
2023-01-20T00:49:26.232Z,6.32
2023-01-20T00:51:52.934Z,5.78
2023-01-20T00:54:19.603Z,8.65
2023-01-20T00:56:46.210Z,7.03
2023-01-20T00:59:12.860Z,8.95
2023-01-20T01:01:39.573Z,8.50
2023-01-20T01:04:06.385Z,6.30
2023-01-20T01:06:33.003Z,4.45
2023-01-20T01:08:59.661Z,5.37
2023-01-20T01:11:26.315Z,4.80
2023-01-20T01:13:55.395Z,6.03
2023-01-20T01:16:22.187Z,5.32
2023-01-20T01:18:48.991Z,5.93
2023-01-20T01:21:17.127Z,6.17
2023-01-20T01:23:44.359Z,5.57
2023-01-20T01:26:11.065Z,5.65
2023-01-20T01:28:38.120Z,5.43
2023-01-20T01:31:06.593Z,4.47
2023-01-20T01:33:34.258Z,6.50
2023-01-20T01:36:02.454Z,4.60
2023-01-20T01:38:29.731Z,4.50
2023-01-20T01:41:15.808Z,9.80
2023-01-20T01:44:03.512Z,6.70
2023-01-20T01:46:30.190Z,5.20
2023-01-20T01:48:58.840Z,5.28
2023-01-20T01:51:29.612Z,5.50
2023-01-20T01:54:01.479Z,5.20
2023-01-20T01:56:29.888Z,4.50
2023-01-20T01:59:00.065Z,4.27
2023-01-20T02:01:27.778Z,4.85
2023-01-20T02:04:05.648Z,4.95
2023-01-20T02:06:34.699Z,4.68
2023-01-20T02:09:04.276Z,5.05
2023-01-20T02:11:35.267Z,4.67
2023-01-20T02:14:02.269Z,5.18
2023-01-20T02:16:37.958Z,15.63
2023-01-20T02:19:23.032Z,5.22
2023-01-20T02:22:01.364Z,3.28
2023-01-20T02:24:52.929Z,3.00
2023-01-20T02:27:41.246Z,3.25
2023-01-20T02:30:29.492Z,2.88
2023-01-20T02:33:05.549Z,4.78
2023-01-20T02:35:41.145Z,5.10
2023-01-20T02:38:33.665Z,5.30
2023-01-20T02:41:16.636Z,5.20
2023-01-20T02:43:59.393Z,5.25
2023-01-20T02:46:36.197Z,5.20
2023-01-20T02:49:14.050Z,5.72
2023-01-20T02:51:52.155Z,5.67
2023-01-20T02:54:21.765Z,5.57
2023-01-20T02:56:51.670Z,5.72
2023-01-20T02:59:23.651Z,6.38
2023-01-20T03:01:54.665Z,6.10
2023-01-20T03:04:29.798Z,7.00
2023-01-20T03:06:59.828Z,6.93
2023-01-20T03:09:33.300Z,6.15
2023-01-20T03:12:11.764Z,6.38
2023-01-20T03:14:38.575Z,5.95
2023-01-20T03:17:05.242Z,5.80
2023-01-20T03:19:31.973Z,5.70
2023-01-20T03:21:58.648Z,5.82
2023-01-20T03:24:29.369Z,5.88
2023-01-20T03:26:56.511Z,5.95
2023-01-20T03:29:23.146Z,5.83
2023-01-20T03:31:56.859Z,6.15
2023-01-20T03:34:26.257Z,7.28
2023-01-20T03:36:54.803Z,5.93
2023-01-20T03:39:23.932Z,5.32
2023-01-20T03:42:14.997Z,4.90
2023-01-20T03:44:57.735Z,5.38
2023-01-20T03:47:50.683Z,5.32
2023-01-20T03:50:33.644Z,5.15
2023-01-20T03:53:09.939Z,6.10
2023-01-20T03:55:39.613Z,5.60
2023-01-20T03:58:16.205Z,5.95
2023-01-20T04:00:46.322Z,5.60
2023-01-20T04:03:19.019Z,5.10
2023-01-20T04:05:48.523Z,5.72
2023-01-20T04:08:17.965Z,5.07
2023-01-20T04:10:48.614Z,5.35
2023-01-20T04:13:16.230Z,5.45
2023-01-20T04:15:45.394Z,5.47
2023-01-20T04:18:13.392Z,6.32
2023-01-20T04:20:40.615Z,5.87
2023-01-20T04:23:13.556Z,4.82
2023-01-20T04:25:40.191Z,6.50
2023-01-20T04:28:06.854Z,4.53
2023-01-20T04:30:33.492Z,4.43
2023-01-20T04:33:00.118Z,6.07
2023-01-20T04:35:26.855Z,6.20
2023-01-20T04:37:53.947Z,5.97
2023-01-20T04:40:20.675Z,6.38
2023-01-20T04:42:47.349Z,6.00
2023-01-20T04:45:17.738Z,5.60
2023-01-20T04:47:45.033Z,8.25
2023-01-20T04:50:12.805Z,7.85
2023-01-20T04:52:39.515Z,7.57
2023-01-20T04:55:06.557Z,5.53
2023-01-20T04:57:33.184Z,5.80
2023-01-20T04:59:59.835Z,6.28
2023-01-20T05:02:26.623Z,8.35
2023-01-20T05:04:53.269Z,7.63
2023-01-20T05:07:19.881Z,7.20
2023-01-20T05:09:46.545Z,6.33
2023-01-20T05:12:13.197Z,5.88
2023-01-20T05:14:39.896Z,6.03
2023-01-20T05:17:06.541Z,7.13
2023-01-20T05:19:33.128Z,11.43
2023-01-20T05:22:00.374Z,6.30
2023-01-20T05:24:26.987Z,5.10
2023-01-20T05:26:53.676Z,7.10
2023-01-20T05:29:20.273Z,7.80
2023-01-20T05:31:46.929Z,9.15
2023-01-20T05:34:13.615Z,7.60
2023-01-20T05:36:40.210Z,6.60
2023-01-20T05:39:07.016Z,5.90
2023-01-20T05:41:33.591Z,6.80
2023-01-20T05:44:00.458Z,5.20
2023-01-20T05:46:27.224Z,4.17
2023-01-20T05:48:53.878Z,4.00
2023-01-20T05:51:20.557Z,6.00
2023-01-20T05:53:47.212Z,7.05
2023-01-20T05:56:15.879Z,7.55
2023-01-20T05:58:42.929Z,7.40
2023-01-20T06:01:12.317Z,7.38
2023-01-20T06:03:39.743Z,7.85
2023-01-20T06:06:08.649Z,7.47
2023-01-20T06:08:35.454Z,7.57
2023-01-20T06:11:02.098Z,8.00
2023-01-20T06:13:28.803Z,9.23
2023-01-20T06:15:55.866Z,9.23
2023-01-20T06:18:23.571Z,10.48
2023-01-20T06:20:50.501Z,11.02
2023-01-20T06:23:17.786Z,10.33
2023-01-20T06:25:44.483Z,10.35
2023-01-20T06:28:11.261Z,12.52
2023-01-20T06:30:38.606Z,12.80
2023-01-20T06:33:10.544Z,11.70
2023-01-20T06:35:37.916Z,12.93
2023-01-20T06:38:04.620Z,11.48
2023-01-20T06:40:32.229Z,11.50
2023-01-20T06:42:59.345Z,10.13
2023-01-20T06:45:26.041Z,10.32
2023-01-20T06:47:52.676Z,9.83
2023-01-20T06:50:19.589Z,9.82
2023-01-20T06:52:46.236Z,11.20
2023-01-20T06:55:13.305Z,12.90
2023-01-20T06:57:40.168Z,14.02
2023-01-20T07:00:07.598Z,13.37
2023-01-20T07:02:34.278Z,12.57
2023-01-20T07:05:01.081Z,12.45
2023-01-20T07:07:27.717Z,12.00
2023-01-20T07:09:55.207Z,12.63
2023-01-20T07:12:21.885Z,11.17
2023-01-20T07:14:48.549Z,11.63
2023-01-20T07:17:15.214Z,10.63
2023-01-20T07:19:41.978Z,10.95
2023-01-20T07:22:08.645Z,11.35
2023-01-20T07:24:35.662Z,11.93
2023-01-20T07:27:02.315Z,13.45
2023-01-20T07:29:29.039Z,13.88
2023-01-20T07:31:56.071Z,13.95
2023-01-20T07:34:22.784Z,13.15
2023-01-20T07:36:52.084Z,13.17
2023-01-20T07:39:20.239Z,14.60
2023-01-20T07:41:49.758Z,13.23
2023-01-20T07:44:16.729Z,12.70
2023-01-20T07:46:43.347Z,12.80
2023-01-20T07:49:12.332Z,12.50
2023-01-20T07:51:39.821Z,13.93
2023-01-20T07:54:06.750Z,12.85
2023-01-20T07:56:33.476Z,12.77
2023-01-20T07:59:00.160Z,14.18
2023-01-20T08:01:31.889Z,13.83
2023-01-20T08:04:02.161Z,13.57
2023-01-20T08:06:29.471Z,14.38
2023-01-20T08:08:59.347Z,13.55
2023-01-20T08:11:25.981Z,13.35
2023-01-20T08:13:53.052Z,14.40
2023-01-20T08:16:19.942Z,12.95
2023-01-20T08:18:47.095Z,13.60
2023-01-20T08:21:24.940Z,12.55
2023-01-20T08:23:51.636Z,12.50
2023-01-20T08:26:19.469Z,13.70
2023-01-20T08:28:46.475Z,12.95
2023-01-20T08:31:16.143Z,14.30
2023-01-20T08:33:44.172Z,13.27
2023-01-20T08:36:13.744Z,15.10
2023-01-20T08:38:41.129Z,13.93
2023-01-20T08:41:13.124Z,13.75
2023-01-20T08:43:39.957Z,14.32
2023-01-20T08:46:13.271Z,13.55
2023-01-20T08:48:41.826Z,13.15
2023-01-20T08:51:20.921Z,12.77
2023-01-20T08:53:48.472Z,14.82
2023-01-20T08:56:16.383Z,14.25
2023-01-20T08:58:43.090Z,13.13
2023-01-20T09:01:11.928Z,13.98
2023-01-20T09:03:39.921Z,14.77
2023-01-20T09:06:08.072Z,15.88
2023-01-20T09:08:35.322Z,15.30
2023-01-20T09:11:25.105Z,13.35
2023-01-20T09:13:52.182Z,13.40
2023-01-20T09:16:19.621Z,13.80
2023-01-20T09:18:46.578Z,15.88
2023-01-20T09:21:13.282Z,14.95
2023-01-20T09:23:40.773Z,13.70
2023-01-20T09:26:08.286Z,14.80
2023-01-20T09:28:35.536Z,14.30
2023-01-20T09:31:07.827Z,13.30
2023-01-20T09:33:38.246Z,14.15
2023-01-20T09:36:07.029Z,15.20
2023-01-20T09:38:52.192Z,14.77
2023-01-20T09:41:46.266Z,11.37
2023-01-20T09:44:18.972Z,12.80
2023-01-20T09:47:18.863Z,11.88
2023-01-20T09:50:41.727Z,10.50
2023-01-20T09:53:32.896Z,10.55
2023-01-20T09:56:16.905Z,11.30
2023-01-20T09:58:55.940Z,7.40
2023-01-20T10:01:30.994Z,7.88
2023-01-20T10:04:10.136Z,7.43
2023-01-20T10:06:47.683Z,11.60
2023-01-20T10:09:23.367Z,11.17
2023-01-20T10:11:55.392Z,8.50
2023-01-20T10:14:29.759Z,5.75
2023-01-20T10:17:13.608Z,6.50
2023-01-20T10:19:46.330Z,5.88
2023-01-20T10:22:17.736Z,5.80
2023-01-20T10:24:55.479Z,6.25
2023-01-20T10:27:26.807Z,6.63
2023-01-20T10:30:01.717Z,6.20
2023-01-20T10:32:36.569Z,6.53
2023-01-20T10:35:16.969Z,6.10
2023-01-20T10:37:43.868Z,5.63
2023-01-20T10:40:24.286Z,5.72
2023-01-20T10:42:58.669Z,5.05
2023-01-20T10:45:34.583Z,4.85
2023-01-20T10:48:27.734Z,4.97
2023-01-20T10:51:13.842Z,5.00
2023-01-20T10:53:49.882Z,4.60
2023-01-20T10:56:24.232Z,5.28
2023-01-20T10:58:50.900Z,5.43
2023-01-20T11:01:21.654Z,5.50
2023-01-20T11:03:49.403Z,5.10
2023-01-20T11:06:27.897Z,5.35
2023-01-20T11:08:55.683Z,4.88
2023-01-20T11:11:24.055Z,5.70
2023-01-20T11:13:52.211Z,5.37
2023-01-20T11:16:24.698Z,5.10
2023-01-20T11:19:03.077Z,5.95
2023-01-20T11:21:36.638Z,5.65
2023-01-20T11:24:38.446Z,6.00
2023-01-20T11:27:11.022Z,6.07
2023-01-20T11:29:49.876Z,6.57
2023-01-20T11:32:36.078Z,5.72
2023-01-20T11:35:20.994Z,5.35
2023-01-20T11:37:47.727Z,4.65
2023-01-20T11:40:20.316Z,5.10
2023-01-20T11:42:49.302Z,4.55
2023-01-20T11:45:36.965Z,5.20
2023-01-20T11:48:05.234Z,6.55
2023-01-20T11:50:46.632Z,6.75
2023-01-20T11:53:26.882Z,6.43
2023-01-20T11:55:56.601Z,7.22
2023-01-20T11:58:26.492Z,6.47
2023-01-20T12:01:01.543Z,5.20
2023-01-20T12:04:00.704Z,5.90
2023-01-20T12:06:38.325Z,4.70
2023-01-20T12:09:12.315Z,6.07
2023-01-20T12:11:54.491Z,6.70
2023-01-20T12:14:38.653Z,6.85
2023-01-20T12:17:21.816Z,7.18
2023-01-20T12:19:57.270Z,7.60
2023-01-20T12:22:44.104Z,6.40
2023-01-20T12:25:11.603Z,6.70
2023-01-20T12:27:46.796Z,5.85
2023-01-20T12:30:38.117Z,6.50
2023-01-20T12:33:08.171Z,5.77
2023-01-20T12:35:44.815Z,5.38
2023-01-20T12:38:18.837Z,5.35
2023-01-20T12:40:52.154Z,4.80
2023-01-20T12:43:33.797Z,5.43
2023-01-20T12:46:19.298Z,4.40
2023-01-20T12:49:10.541Z,4.88
2023-01-20T12:51:49.387Z,4.57
2023-01-20T12:54:48.858Z,4.65
2023-01-20T12:57:40.073Z,4.60
2023-01-20T13:00:38.816Z,4.50
2023-01-20T13:03:43.160Z,5.03
2023-01-20T13:06:15.497Z,2.85
2023-01-20T13:09:08.250Z,2.35
2023-01-20T13:11:59.760Z,3.20
2023-01-20T13:14:48.990Z,2.37
2023-01-20T13:17:21.285Z,3.08
2023-01-20T13:19:50.009Z,3.25
2023-01-20T13:22:21.879Z,4.05
2023-01-20T13:24:52.999Z,3.78
2023-01-20T13:27:37.539Z,3.40
2023-01-20T13:30:08.266Z,4.50
2023-01-20T13:32:45.017Z,3.40
2023-01-20T13:35:17.935Z,4.65
2023-01-20T13:37:59.924Z,4.47
2023-01-20T13:40:35.673Z,3.30
2023-01-20T13:43:18.116Z,5.15
2023-01-20T13:45:44.871Z,4.82
2023-01-20T13:48:11.464Z,4.57
2023-01-20T13:50:40.465Z,4.43
2023-01-20T13:53:10.171Z,3.83
2023-01-20T13:55:45.426Z,3.80
2023-01-20T13:58:20.625Z,3.20
2023-01-20T14:00:54.990Z,3.80
2023-01-20T14:03:27.861Z,4.68
2023-01-20T14:05:56.029Z,3.80
2023-01-20T14:08:24.563Z,5.78
2023-01-20T14:10:51.631Z,4.95
2023-01-20T14:13:23.506Z,3.80
2023-01-20T14:15:53.216Z,4.70
2023-01-20T14:18:22.934Z,4.67
2023-01-20T14:21:17.480Z,5.13
2023-01-20T14:23:48.235Z,5.22
2023-01-20T14:26:27.211Z,3.92
2023-01-20T14:28:59.004Z,4.57
2023-01-20T14:31:25.726Z,4.97
2023-01-20T14:33:57.536Z,4.68
2023-01-20T14:36:26.767Z,4.97
2023-01-20T14:38:58.941Z,4.28
2023-01-20T14:41:32.328Z,4.03
2023-01-20T14:43:59.762Z,5.00
2023-01-20T14:46:28.204Z,4.97
2023-01-20T14:48:56.138Z,5.43
2023-01-20T14:51:23.510Z,5.40
2023-01-20T14:54:34.248Z,4.47
2023-01-20T14:57:12.525Z,5.20
2023-01-20T14:59:39.267Z,5.85
2023-01-20T15:02:17.066Z,6.10
2023-01-20T15:04:43.930Z,5.95
2023-01-20T15:07:18.031Z,7.15
2023-01-20T15:09:51.751Z,6.27
2023-01-20T15:12:47.360Z,5.15
2023-01-20T15:15:24.741Z,4.30
2023-01-20T15:18:16.704Z,5.53
2023-01-20T15:20:54.951Z,4.97
2023-01-20T15:23:27.956Z,4.47
2023-01-20T15:25:54.831Z,4.70
2023-01-20T15:28:29.878Z,5.20
2023-01-20T15:30:58.923Z,5.05
2023-01-20T15:33:25.949Z,5.78
2023-01-20T15:35:55.124Z,6.43
2023-01-20T15:38:22.000Z,6.63
2023-01-20T15:40:48.778Z,6.10
2023-01-20T15:43:17.264Z,6.43
2023-01-20T15:45:44.773Z,6.00
2023-01-20T15:48:17.839Z,7.23
2023-01-20T15:50:45.776Z,8.45
2023-01-20T15:53:12.884Z,7.50
2023-01-20T15:55:49.058Z,7.65
2023-01-20T15:58:22.377Z,10.65
2023-01-20T16:00:49.549Z,11.93
2023-01-20T16:03:16.685Z,12.90
2023-01-20T16:05:43.372Z,11.70
2023-01-20T16:08:18.067Z,9.55
2023-01-20T16:10:45.004Z,9.40
2023-01-20T16:13:11.931Z,6.73
2023-01-20T16:15:42.011Z,4.10
2023-01-20T16:18:17.537Z,4.57
2023-01-20T16:20:46.541Z,5.30
2023-01-20T16:23:14.424Z,4.70
2023-01-20T16:25:42.548Z,4.60
2023-01-20T16:28:14.543Z,4.68
2023-01-20T16:30:41.747Z,4.55
2023-01-20T16:33:20.485Z,3.60
2023-01-20T16:35:48.151Z,5.53
2023-01-20T16:38:17.756Z,6.00
2023-01-20T16:41:06.274Z,5.82
2023-01-20T16:43:32.925Z,6.57
2023-01-20T16:45:59.844Z,6.25
2023-01-20T16:48:26.451Z,5.00
2023-01-20T16:50:53.265Z,5.50
2023-01-20T16:53:20.238Z,5.40
2023-01-20T16:55:48.430Z,6.07
2023-01-20T16:58:16.402Z,7.05
2023-01-20T17:00:43.224Z,4.82
2023-01-20T17:03:09.925Z,4.83
2023-01-20T17:05:36.596Z,6.82
2023-01-20T17:08:04.177Z,7.30
2023-01-20T17:10:34.774Z,7.32
2023-01-20T17:13:01.568Z,10.95
2023-01-20T17:15:28.317Z,20.60
2023-01-20T17:17:58.154Z,17.88
2023-01-20T17:20:26.738Z,17.45
2023-01-20T17:22:55.660Z,18.50
2023-01-20T17:25:23.078Z,23.90
2023-01-20T17:27:49.931Z,16.13
2023-01-20T17:30:17.155Z,13.95
2023-01-20T17:32:48.343Z,19.45
2023-01-20T17:35:15.920Z,6.88
2023-01-20T17:37:42.793Z,5.80
2023-01-20T17:40:12.948Z,6.68
2023-01-20T17:42:39.591Z,6.32
2023-01-20T17:45:06.686Z,5.93
2023-01-20T17:47:33.385Z,5.18
2023-01-20T17:50:00.170Z,5.25
2023-01-20T17:52:28.460Z,5.32
2023-01-20T17:54:55.066Z,5.70
2023-01-20T17:57:21.655Z,5.05
2023-01-20T17:59:48.495Z,5.70
2023-01-20T18:02:18.436Z,5.28
2023-01-20T18:04:45.220Z,5.15
2023-01-20T18:07:11.939Z,4.45
2023-01-20T18:09:38.580Z,5.72
2023-01-20T18:12:05.610Z,5.53
2023-01-20T18:14:32.195Z,5.95
2023-01-20T18:16:58.919Z,6.15
2023-01-20T18:19:25.572Z,6.10
2023-01-20T18:21:52.205Z,5.00
2023-01-20T18:24:18.947Z,4.88
2023-01-20T18:26:45.884Z,3.47
2023-01-20T18:29:15.293Z,3.90
2023-01-20T18:31:42.962Z,4.40
2023-01-20T18:34:12.470Z,3.80
2023-01-20T18:36:41.498Z,5.25
2023-01-20T18:39:14.609Z,4.18
2023-01-20T18:41:41.731Z,4.32
2023-01-20T18:44:08.523Z,9.55
2023-01-20T18:46:35.340Z,4.95
2023-01-20T18:49:02.432Z,3.72
2023-01-20T18:51:30.167Z,4.35
2023-01-20T18:54:02.049Z,6.18
2023-01-20T18:56:29.897Z,5.97
2023-01-20T18:58:57.735Z,6.13
2023-01-20T19:01:29.868Z,6.43
2023-01-20T19:03:57.198Z,6.05
2023-01-20T19:06:36.866Z,7.05
2023-01-20T19:09:04.818Z,6.55
2023-01-20T19:11:35.803Z,5.90
2023-01-20T19:14:03.156Z,6.03
2023-01-20T19:16:32.721Z,6.60
2023-01-20T19:19:01.932Z,6.55
2023-01-20T19:21:32.474Z,6.00
2023-01-20T19:24:01.662Z,5.70
2023-01-20T19:26:28.680Z,4.93
2023-01-20T19:28:56.912Z,5.20
2023-01-20T19:31:24.537Z,9.40
2023-01-20T19:33:51.505Z,10.68
2023-01-20T19:36:19.566Z,9.57
2023-01-20T19:38:46.909Z,11.90
2023-01-20T19:41:19.191Z,35.05
2023-01-20T19:43:46.246Z,25.08
2023-01-20T19:46:16.027Z,14.93
2023-01-20T19:48:43.306Z,11.90
2023-01-20T19:51:13.639Z,12.13
2023-01-20T19:53:41.502Z,10.77
2023-01-20T19:56:16.268Z,10.95
2023-01-20T19:58:44.090Z,12.07
2023-01-20T20:01:22.822Z,9.25
2023-01-20T20:03:51.617Z,7.32
2023-01-20T20:06:23.246Z,6.00
2023-01-20T20:08:51.042Z,5.93
2023-01-20T20:11:18.001Z,8.07
2023-01-20T20:13:44.726Z,9.30
2023-01-20T20:16:11.472Z,8.70
2023-01-20T20:18:38.224Z,8.90
2023-01-20T20:21:05.826Z,8.60
2023-01-20T20:23:32.544Z,10.32
2023-01-20T20:25:59.212Z,10.75
2023-01-20T20:28:27.620Z,12.95
2023-01-20T20:30:55.606Z,15.60
2023-01-20T20:33:23.978Z,13.68
2023-01-20T20:35:50.913Z,13.90
2023-01-20T20:38:17.619Z,15.95
2023-01-20T20:40:44.331Z,17.23
2023-01-20T20:43:10.989Z,17.55
2023-01-20T20:45:37.696Z,18.67
2023-01-20T20:48:04.871Z,14.65
2023-01-20T20:50:31.618Z,15.77
2023-01-20T20:52:59.129Z,15.95
2023-01-20T20:55:26.255Z,16.75
2023-01-20T20:57:53.084Z,15.85
2023-01-20T21:00:23.503Z,15.55
2023-01-20T21:02:50.543Z,14.23
2023-01-20T21:05:18.937Z,14.13
2023-01-20T21:07:46.011Z,14.35
2023-01-20T21:10:15.633Z,14.05
2023-01-20T21:12:43.814Z,15.18
2023-01-20T21:15:11.710Z,16.35
2023-01-20T21:17:38.802Z,15.20
2023-01-20T21:20:07.253Z,14.73
2023-01-20T21:22:34.349Z,14.95
2023-01-20T21:25:01.051Z,14.95
2023-01-20T21:27:27.735Z,14.80
2023-01-20T21:29:54.478Z,13.93
2023-01-20T21:32:21.127Z,12.75
2023-01-20T21:34:47.751Z,13.23
2023-01-20T21:37:14.899Z,13.45
2023-01-20T21:39:41.503Z,17.95
2023-01-20T21:42:09.118Z,16.95
2023-01-20T21:44:36.450Z,11.13
2023-01-20T21:47:08.041Z,11.30
2023-01-20T21:49:53.725Z,11.23
2023-01-20T21:52:41.081Z,10.48
2023-01-20T21:55:25.689Z,11.45
2023-01-20T21:57:52.342Z,12.10
2023-01-20T22:00:19.402Z,12.73
2023-01-20T22:02:46.153Z,12.05
2023-01-20T22:05:13.401Z,12.27
2023-01-20T22:07:40.145Z,13.70
2023-01-20T22:10:07.757Z,10.75
2023-01-20T22:12:35.544Z,10.27
2023-01-20T22:15:03.437Z,9.73
2023-01-20T22:17:30.266Z,9.90
2023-01-20T22:19:57.014Z,11.05
2023-01-20T22:22:23.643Z,9.70
2023-01-20T22:24:50.459Z,14.35
2023-01-20T22:27:17.163Z,13.55
2023-01-20T22:29:43.818Z,12.25
2023-01-20T22:32:10.515Z,12.73
2023-01-20T22:34:37.258Z,13.18
2023-01-20T22:37:03.906Z,13.00
2023-01-20T22:39:30.616Z,13.30
2023-01-20T22:41:57.349Z,15.52
2023-01-20T22:44:24.047Z,19.15
2023-01-20T22:46:50.693Z,15.95
2023-01-20T22:49:17.400Z,16.05
2023-01-20T22:51:44.050Z,17.33
2023-01-20T22:54:10.964Z,15.68
2023-01-20T22:56:39.076Z,15.75
2023-01-20T22:59:06.247Z,14.57
2023-01-20T23:01:35.254Z,11.35
2023-01-20T23:04:04.908Z,11.98
2023-01-20T23:06:34.273Z,10.00
2023-01-20T23:09:04.452Z,10.15
2023-01-20T23:11:31.548Z,11.70
2023-01-20T23:13:58.355Z,11.35
2023-01-20T23:16:25.099Z,10.90
2023-01-20T23:18:52.422Z,10.30
2023-01-20T23:21:20.073Z,10.77
2023-01-20T23:23:46.829Z,10.98
2023-01-20T23:26:16.804Z,11.95
2023-01-20T23:28:45.008Z,11.43
2023-01-20T23:31:16.044Z,11.70
2023-01-20T23:33:43.797Z,11.93
2023-01-20T23:36:17.243Z,11.60
2023-01-20T23:38:44.826Z,11.13
2023-01-20T23:41:13.191Z,10.93
2023-01-20T23:43:40.957Z,12.38
2023-01-20T23:46:08.812Z,12.70
2023-01-20T23:48:36.229Z,11.55
2023-01-20T23:51:03.972Z,11.32
2023-01-20T23:53:32.759Z,12.02
2023-01-20T23:56:01.280Z,12.38
2023-01-20T23:58:28.267Z,10.60
